首页
METAR-TAF:

METAR-TAF

机场 :

莫伊国际机场

蒙巴萨, 肯尼亚

纬度: 04-02S, 经度: 039-37E, 海拔: 57米

METAR: 丢失

时间: 16:09 (13:09 UTC)

预报

该预报发布于26小时和9分钟前的11:00 UTC
预报有效从18日的 12点(UTC)到 19日的 18点(UTC)
风速10节,风向
能见度10公里或以上
少量云层高于2600英尺
成为
从 19日的 01点(UTC)到 19日的 04点(UTC)
风速5节,风向
多云层高于2000英尺
成为
从 19日的 09点(UTC)到 19日的 12点(UTC)
风速10节,风向
散云层高于2500英尺

TAF: HKMO 181100Z 1812/1918 09010KT 9999 FEW026 BECMG 1901/1904 36005KT BKN020 BECMG 1909/1912 09010KT SCT025

超过4000个机场的气象观测和天气预报(METAR&TAF报告)。

可查询的气象台以黄色和红色小点在地图上表示。

将鼠标移到小点上方,可查看气象台名称。

然后点击查看天气观测和预报。

如需切换地图:点击带黑十字的绿色按钮放大地图;点击带横线的绿色按钮缩小地图;或者点击绿色箭头查看邻近地区的地图。


METAR-TAF: